sensor_id;sensor_type;location;lat;lon;timestamp;temperature;humidity
3023;DHT22;1521;53.584;9.938;2024-02-14T00:01:04;5.80;1.00
3023;DHT22;1521;53.584;9.938;2024-02-14T00:03:29;5.80;1.00
3023;DHT22;1521;53.584;9.938;2024-02-14T00:05:55;5.70;1.80
3023;DHT22;1521;53.584;9.938;2024-02-14T00:08:22;5.80;5.30
3023;DHT22;1521;53.584;9.938;2024-02-14T00:10:48;5.80;5.50
3023;DHT22;1521;53.584;9.938;2024-02-14T00:13:13;5.80;5.70
3023;DHT22;1521;53.584;9.938;2024-02-14T00:15:40;5.80;6.20
3023;DHT22;1521;53.584;9.938;2024-02-14T00:18:05;5.80;9.80
3023;DHT22;1521;53.584;9.938;2024-02-14T00:20:31;5.80;10.60
3023;DHT22;1521;53.584;9.938;2024-02-14T00:22:57;5.80;13.70
3023;DHT22;1521;53.584;9.938;2024-02-14T00:25:23;5.70;16.50
3023;DHT22;1521;53.584;9.938;2024-02-14T00:27:49;5.90;16.30
3023;DHT22;1521;53.584;9.938;2024-02-14T00:30:15;5.80;11.70
3023;DHT22;1521;53.584;9.938;2024-02-14T00:32:41;5.80;14.40
3023;DHT22;1521;53.584;9.938;2024-02-14T00:35:07;5.90;14.80
3023;DHT22;1521;53.584;9.938;2024-02-14T00:37:33;5.90;13.90
3023;DHT22;1521;53.584;9.938;2024-02-14T00:39:59;5.90;13.80
3023;DHT22;1521;53.584;9.938;2024-02-14T00:42:25;5.90;12.50
3023;DHT22;1521;53.584;9.938;2024-02-14T00:44:51;5.80;14.60
3023;DHT22;1521;53.584;9.938;2024-02-14T00:47:16;5.80;17.00
3023;DHT22;1521;53.584;9.938;2024-02-14T00:49:42;5.70;19.90
3023;DHT22;1521;53.584;9.938;2024-02-14T00:52:08;5.70;23.90
3023;DHT22;1521;53.584;9.938;2024-02-14T00:54:34;5.80;26.20
3023;DHT22;1521;53.584;9.938;2024-02-14T00:57:00;5.80;26.20
3023;DHT22;1521;53.584;9.938;2024-02-14T00:59:26;5.90;23.70
3023;DHT22;1521;53.584;9.938;2024-02-14T01:01:51;5.80;22.90
3023;DHT22;1521;53.584;9.938;2024-02-14T01:04:17;5.90;27.50
3023;DHT22;1521;53.584;9.938;2024-02-14T01:06:43;5.90;27.10
3023;DHT22;1521;53.584;9.938;2024-02-14T01:09:09;5.80;28.40
3023;DHT22;1521;53.584;9.938;2024-02-14T01:11:35;5.90;30.90
3023;DHT22;1521;53.584;9.938;2024-02-14T01:14:03;6.10;20.60
3023;DHT22;1521;53.584;9.938;2024-02-14T01:16:29;6.10;18.20
3023;DHT22;1521;53.584;9.938;2024-02-14T01:18:55;6.00;25.40
3023;DHT22;1521;53.584;9.938;2024-02-14T01:21:20;6.10;28.30
3023;DHT22;1521;53.584;9.938;2024-02-14T01:23:46;6.00;39.40
3023;DHT22;1521;53.584;9.938;2024-02-14T01:26:11;6.00;47.10
3023;DHT22;1521;53.584;9.938;2024-02-14T01:28:37;6.00;48.70
3023;DHT22;1521;53.584;9.938;2024-02-14T01:31:03;6.10;58.00
3023;DHT22;1521;53.584;9.938;2024-02-14T01:33:29;6.10;73.20
3023;DHT22;1521;53.584;9.938;2024-02-14T01:35:56;6.10;84.80
3023;DHT22;1521;53.584;9.938;2024-02-14T01:38:23;6.00;99.90
3023;DHT22;1521;53.584;9.938;2024-02-14T01:40:48;6.00;99.90
3023;DHT22;1521;53.584;9.938;2024-02-14T01:43:14;6.00;99.90
3023;DHT22;1521;53.584;9.938;2024-02-14T01:45:40;5.90;99.90
3023;DHT22;1521;53.584;9.938;2024-02-14T01:48:06;5.90;99.90
3023;DHT22;1521;53.584;9.938;2024-02-14T01:50:33;5.90;99.90
3023;DHT22;1521;53.584;9.938;2024-02-14T01:53:00;5.90;99.90
3023;DHT22;1521;53.584;9.938;2024-02-14T01:55:29;5.80;99.90
3023;DHT22;1521;53.584;9.938;2024-02-14T01:57:55;5.80;1.00
3023;DHT22;1521;53.584;9.938;2024-02-14T02:00:21;5.80;1.00
3023;DHT22;1521;53.584;9.938;2024-02-14T02:02:47;5.70;1.00
3023;DHT22;1521;53.584;9.938;2024-02-14T02:05:13;5.80;1.00
3023;DHT22;1521;53.584;9.938;2024-02-14T02:07:39;5.80;63.60
3023;DHT22;1521;53.584;9.938;2024-02-14T02:10:12;5.70;99.90
3023;DHT22;1521;53.584;9.938;2024-02-14T02:12:38;5.70;99.90
3023;DHT22;1521;53.584;9.938;2024-02-14T02:15:07;5.70;1.00
3023;DHT22;1521;53.584;9.938;2024-02-14T02:17:36;5.70;1.00
3023;DHT22;1521;53.584;9.938;2024-02-14T02:20:02;5.80;99.90
3023;DHT22;1521;53.584;9.938;2024-02-14T02:22:27;5.80;99.90
3023;DHT22;1521;53.584;9.938;2024-02-14T02:24:57;5.70;99.90
3023;DHT22;1521;53.584;9.938;2024-02-14T02:27:23;5.60;99.90
3023;DHT22;1521;53.584;9.938;2024-02-14T02:29:52;5.70;1.00
3023;DHT22;1521;53.584;9.938;2024-02-14T02:32:18;5.60;99.90
3023;DHT22;1521;53.584;9.938;2024-02-14T02:34:43;5.60;1.00
3023;DHT22;1521;53.584;9.938;2024-02-14T02:37:11;5.50;99.90
3023;DHT22;1521;53.584;9.938;2024-02-14T02:39:37;5.60;1.00
3023;DHT22;1521;53.584;9.938;2024-02-14T02:42:03;5.60;99.90
3023;DHT22;1521;53.584;9.938;2024-02-14T02:44:29;5.60;99.90
3023;DHT22;1521;53.584;9.938;2024-02-14T02:46:55;5.60;99.90
3023;DHT22;1521;53.584;9.938;2024-02-14T02:49:21;5.60;99.90
3023;DHT22;1521;53.584;9.938;2024-02-14T02:51:47;5.50;99.90
3023;DHT22;1521;53.584;9.938;2024-02-14T02:54:13;5.50;1.00
3023;DHT22;1521;53.584;9.938;2024-02-14T02:56:38;5.40;1.00
3023;DHT22;1521;53.584;9.938;2024-02-14T02:59:06;5.40;99.90
3023;DHT22;1521;53.584;9.938;2024-02-14T03:01:35;5.40;22.70
3023;DHT22;1521;53.584;9.938;2024-02-14T03:04:01;5.40;1.00
3023;DHT22;1521;53.584;9.938;2024-02-14T03:06:27;5.30;1.00
3023;DHT22;1521;53.584;9.938;2024-02-14T03:08:53;5.40;99.90
3023;DHT22;1521;53.584;9.938;2024-02-14T03:11:21;5.40;1.00
3023;DHT22;1521;53.584;9.938;2024-02-14T03:13:47;5.40;1.00
3023;DHT22;1521;53.584;9.938;2024-02-14T03:16:14;5.30;99.90
3023;DHT22;1521;53.584;9.938;2024-02-14T03:18:40;5.40;1.00
3023;DHT22;1521;53.584;9.938;2024-02-14T03:21:06;5.50;1.00
3023;DHT22;1521;53.584;9.938;2024-02-14T03:23:32;5.40;99.90
3023;DHT22;1521;53.584;9.938;2024-02-14T03:25:57;5.40;99.90
3023;DHT22;1521;53.584;9.938;2024-02-14T03:28:23;5.40;99.90
3023;DHT22;1521;53.584;9.938;2024-02-14T03:30:50;5.30;1.00
3023;DHT22;1521;53.584;9.938;2024-02-14T03:33:15;5.40;99.90
3023;DHT22;1521;53.584;9.938;2024-02-14T03:35:41;5.40;99.90
3023;DHT22;1521;53.584;9.938;2024-02-14T03:38:07;5.30;2.50
3023;DHT22;1521;53.584;9.938;2024-02-14T03:40:34;5.40;1.00
3023;DHT22;1521;53.584;9.938;2024-02-14T03:43:01;5.30;1.00
3023;DHT22;1521;53.584;9.938;2024-02-14T03:45:27;5.30;74.50
3023;DHT22;1521;53.584;9.938;2024-02-14T03:47:55;5.30;1.00
3023;DHT22;1521;53.584;9.938;2024-02-14T03:50:22;5.30;99.90
3023;DHT22;1521;53.584;9.938;2024-02-14T03:52:47;5.30;99.90
3023;DHT22;1521;53.584;9.938;2024-02-14T03:55:14;5.20;99.90
3023;DHT22;1521;53.584;9.938;2024-02-14T03:57:42;5.20;1.00
3023;DHT22;1521;53.584;9.938;2024-02-14T04:00:11;5.20;99.90
3023;DHT22;1521;53.584;9.938;2024-02-14T04:02:37;5.20;99.90
3023;DHT22;1521;53.584;9.938;2024-02-14T04:05:02;5.20;1.00
3023;DHT22;1521;53.584;9.938;2024-02-14T04:07:28;5.20;1.00
3023;DHT22;1521;53.584;9.938;2024-02-14T04:09:55;5.30;1.00
3023;DHT22;1521;53.584;9.938;2024-02-14T04:12:21;5.20;1.00
3023;DHT22;1521;53.584;9.938;2024-02-14T04:14:46;5.20;1.00
3023;DHT22;1521;53.584;9.938;2024-02-14T04:17:12;5.20;1.00
3023;DHT22;1521;53.584;9.938;2024-02-14T04:19:38;5.30;1.00
3023;DHT22;1521;53.584;9.938;2024-02-14T04:22:03;5.30;1.00
3023;DHT22;1521;53.584;9.938;2024-02-14T04:24:29;5.30;1.00
3023;DHT22;1521;53.584;9.938;2024-02-14T04:26:55;5.30;1.00
3023;DHT22;1521;53.584;9.938;2024-02-14T04:29:22;5.30;1.00
3023;DHT22;1521;53.584;9.938;2024-02-14T04:31:48;5.30;1.00
3023;DHT22;1521;53.584;9.938;2024-02-14T04:34:14;5.20;15.10
3023;DHT22;1521;53.584;9.938;2024-02-14T04:36:40;5.30;51.20
3023;DHT22;1521;53.584;9.938;2024-02-14T04:39:06;5.30;54.00
3023;DHT22;1521;53.584;9.938;2024-02-14T04:41:32;5.30;68.10
3023;DHT22;1521;53.584;9.938;2024-02-14T04:44:03;5.20;71.30
3023;DHT22;1521;53.584;9.938;2024-02-14T04:46:29;5.20;91.60
3023;DHT22;1521;53.584;9.938;2024-02-14T04:48:55;5.20;99.90
3023;DHT22;1521;53.584;9.938;2024-02-14T04:51:20;5.30;99.90
3023;DHT22;1521;53.584;9.938;2024-02-14T04:53:46;5.30;99.90
3023;DHT22;1521;53.584;9.938;2024-02-14T04:56:11;5.30;99.90
3023;DHT22;1521;53.584;9.938;2024-02-14T04:58:37;5.20;99.90
3023;DHT22;1521;53.584;9.938;2024-02-14T05:01:03;5.30;99.90
3023;DHT22;1521;53.584;9.938;2024-02-14T05:03:28;5.30;99.90
3023;DHT22;1521;53.584;9.938;2024-02-14T05:05:54;5.30;99.90
3023;DHT22;1521;53.584;9.938;2024-02-14T05:08:19;5.30;99.90
3023;DHT22;1521;53.584;9.938;2024-02-14T05:10:46;5.20;99.90
3023;DHT22;1521;53.584;9.938;2024-02-14T05:13:11;5.30;99.90
3023;DHT22;1521;53.584;9.938;2024-02-14T05:15:38;5.30;99.90
3023;DHT22;1521;53.584;9.938;2024-02-14T05:18:04;5.20;99.90
3023;DHT22;1521;53.584;9.938;2024-02-14T05:20:30;5.20;99.90
3023;DHT22;1521;53.584;9.938;2024-02-14T05:22:56;5.30;99.90
3023;DHT22;1521;53.584;9.938;2024-02-14T05:25:22;5.30;99.90
3023;DHT22;1521;53.584;9.938;2024-02-14T05:27:47;5.30;99.90
3023;DHT22;1521;53.584;9.938;2024-02-14T05:30:14;5.30;99.90
3023;DHT22;1521;53.584;9.938;2024-02-14T05:32:40;5.40;99.90
3023;DHT22;1521;53.584;9.938;2024-02-14T05:35:05;5.40;99.90
3023;DHT22;1521;53.584;9.938;2024-02-14T05:37:31;5.40;99.90
3023;DHT22;1521;53.584;9.938;2024-02-14T05:39:57;5.50;99.90
3023;DHT22;1521;53.584;9.938;2024-02-14T05:42:23;5.50;99.90
3023;DHT22;1521;53.584;9.938;2024-02-14T05:44:48;5.50;99.90
3023;DHT22;1521;53.584;9.938;2024-02-14T05:47:14;5.50;99.90
3023;DHT22;1521;53.584;9.938;2024-02-14T05:49:40;5.50;99.90
3023;DHT22;1521;53.584;9.938;2024-02-14T05:52:06;5.60;99.90
3023;DHT22;1521;53.584;9.938;2024-02-14T05:54:32;5.60;99.90
3023;DHT22;1521;53.584;9.938;2024-02-14T05:56:58;5.60;99.90
3023;DHT22;1521;53.584;9.938;2024-02-14T05:59:24;5.60;99.90
3023;DHT22;1521;53.584;9.938;2024-02-14T06:01:49;5.60;99.90
3023;DHT22;1521;53.584;9.938;2024-02-14T06:04:15;5.70;99.90
3023;DHT22;1521;53.584;9.938;2024-02-14T06:06:40;5.70;99.90
3023;DHT22;1521;53.584;9.938;2024-02-14T06:09:06;5.70;99.90
3023;DHT22;1521;53.584;9.938;2024-02-14T06:11:35;5.70;99.90
3023;DHT22;1521;53.584;9.938;2024-02-14T06:14:02;5.70;99.90
3023;DHT22;1521;53.584;9.938;2024-02-14T06:16:28;5.70;99.90
3023;DHT22;1521;53.584;9.938;2024-02-14T06:18:54;5.70;99.90
3023;DHT22;1521;53.584;9.938;2024-02-14T06:21:19;5.70;99.90
3023;DHT22;1521;53.584;9.938;2024-02-14T06:23:45;5.80;99.90
3023;DHT22;1521;53.584;9.938;2024-02-14T06:26:12;5.80;99.90
3023;DHT22;1521;53.584;9.938;2024-02-14T06:28:37;5.70;99.90
3023;DHT22;1521;53.584;9.938;2024-02-14T06:31:03;5.80;99.90
3023;DHT22;1521;53.584;9.938;2024-02-14T06:33:29;5.90;99.90
3023;DHT22;1521;53.584;9.938;2024-02-14T06:35:54;5.90;99.90
3023;DHT22;1521;53.584;9.938;2024-02-14T06:38:20;6.00;99.90
3023;DHT22;1521;53.584;9.938;2024-02-14T06:40:45;5.90;99.90
3023;DHT22;1521;53.584;9.938;2024-02-14T06:43:11;6.00;99.90
3023;DHT22;1521;53.584;9.938;2024-02-14T06:45:37;6.00;99.90
3023;DHT22;1521;53.584;9.938;2024-02-14T06:48:04;6.00;99.90
3023;DHT22;1521;53.584;9.938;2024-02-14T06:50:29;6.00;99.90
3023;DHT22;1521;53.584;9.938;2024-02-14T06:52:55;6.00;99.90
3023;DHT22;1521;53.584;9.938;2024-02-14T06:55:25;6.00;99.90
3023;DHT22;1521;53.584;9.938;2024-02-14T06:57:50;6.00;99.90
3023;DHT22;1521;53.584;9.938;2024-02-14T07:00:16;6.00;99.90
3023;DHT22;1521;53.584;9.938;2024-02-14T07:02:42;6.00;99.90
3023;DHT22;1521;53.584;9.938;2024-02-14T07:05:08;6.10;99.90
3023;DHT22;1521;53.584;9.938;2024-02-14T07:07:38;6.10;99.90
3023;DHT22;1521;53.584;9.938;2024-02-14T07:10:04;6.10;99.90
3023;DHT22;1521;53.584;9.938;2024-02-14T07:12:32;6.10;99.90
3023;DHT22;1521;53.584;9.938;2024-02-14T07:14:57;6.10;99.90
3023;DHT22;1521;53.584;9.938;2024-02-14T07:17:23;6.20;99.90
3023;DHT22;1521;53.584;9.938;2024-02-14T07:19:48;6.20;99.90
3023;DHT22;1521;53.584;9.938;2024-02-14T07:22:15;6.20;99.90
3023;DHT22;1521;53.584;9.938;2024-02-14T07:24:41;6.20;99.90
3023;DHT22;1521;53.584;9.938;2024-02-14T07:27:08;6.20;99.90
3023;DHT22;1521;53.584;9.938;2024-02-14T07:29:33;6.20;99.90
3023;DHT22;1521;53.584;9.938;2024-02-14T07:32:02;6.20;99.90
3023;DHT22;1521;53.584;9.938;2024-02-14T07:34:27;6.20;99.90
3023;DHT22;1521;53.584;9.938;2024-02-14T07:36:53;6.30;99.90
3023;DHT22;1521;53.584;9.938;2024-02-14T07:39:19;6.30;99.90
3023;DHT22;1521;53.584;9.938;2024-02-14T07:41:44;6.30;99.90
3023;DHT22;1521;53.584;9.938;2024-02-14T07:44:10;6.30;99.90
3023;DHT22;1521;53.584;9.938;2024-02-14T07:46:35;6.30;99.90
3023;DHT22;1521;53.584;9.938;2024-02-14T07:49:01;6.30;99.90
3023;DHT22;1521;53.584;9.938;2024-02-14T07:51:27;6.30;99.90
3023;DHT22;1521;53.584;9.938;2024-02-14T07:53:54;6.40;99.90
3023;DHT22;1521;53.584;9.938;2024-02-14T07:56:19;6.40;99.90
3023;DHT22;1521;53.584;9.938;2024-02-14T07:58:45;6.40;99.90
3023;DHT22;1521;53.584;9.938;2024-02-14T08:01:11;6.50;99.90
3023;DHT22;1521;53.584;9.938;2024-02-14T08:03:36;6.50;99.90
3023;DHT22;1521;53.584;9.938;2024-02-14T08:06:02;6.50;99.90
3023;DHT22;1521;53.584;9.938;2024-02-14T08:08:28;6.60;99.90
3023;DHT22;1521;53.584;9.938;2024-02-14T08:10:53;6.60;99.90
3023;DHT22;1521;53.584;9.938;2024-02-14T08:13:20;6.60;99.90
3023;DHT22;1521;53.584;9.938;2024-02-14T08:15:45;6.70;99.90
3023;DHT22;1521;53.584;9.938;2024-02-14T08:18:11;6.70;99.90
3023;DHT22;1521;53.584;9.938;2024-02-14T08:20:38;6.70;99.90
3023;DHT22;1521;53.584;9.938;2024-02-14T08:23:03;6.70;99.90
3023;DHT22;1521;53.584;9.938;2024-02-14T08:25:29;6.80;99.90
3023;DHT22;1521;53.584;9.938;2024-02-14T08:27:55;6.80;99.90
3023;DHT22;1521;53.584;9.938;2024-02-14T08:30:21;6.90;99.90
3023;DHT22;1521;53.584;9.938;2024-02-14T08:32:47;6.80;99.90
3023;DHT22;1521;53.584;9.938;2024-02-14T08:35:13;6.80;99.90
3023;DHT22;1521;53.584;9.938;2024-02-14T08:37:39;6.80;99.90
3023;DHT22;1521;53.584;9.938;2024-02-14T08:40:06;6.90;99.90
3023;DHT22;1521;53.584;9.938;2024-02-14T08:42:33;6.90;99.90
3023;DHT22;1521;53.584;9.938;2024-02-14T08:44:59;6.90;99.90
3023;DHT22;1521;53.584;9.938;2024-02-14T08:47:25;7.00;99.90
3023;DHT22;1521;53.584;9.938;2024-02-14T08:49:52;7.10;99.90
3023;DHT22;1521;53.584;9.938;2024-02-14T08:52:17;7.10;99.90
3023;DHT22;1521;53.584;9.938;2024-02-14T08:54:44;7.20;99.90
3023;DHT22;1521;53.584;9.938;2024-02-14T08:57:09;7.20;99.90
3023;DHT22;1521;53.584;9.938;2024-02-14T08:59:35;7.20;99.90
3023;DHT22;1521;53.584;9.938;2024-02-14T09:02:00;7.30;99.90
3023;DHT22;1521;53.584;9.938;2024-02-14T09:04:26;7.30;99.90
3023;DHT22;1521;53.584;9.938;2024-02-14T09:06:53;7.40;99.90
3023;DHT22;1521;53.584;9.938;2024-02-14T09:09:18;7.50;99.90
3023;DHT22;1521;53.584;9.938;2024-02-14T09:11:45;7.50;99.90
3023;DHT22;1521;53.584;9.938;2024-02-14T09:14:12;7.60;99.90
3023;DHT22;1521;53.584;9.938;2024-02-14T09:16:37;7.70;99.90
3023;DHT22;1521;53.584;9.938;2024-02-14T09:19:04;7.70;99.90
3023;DHT22;1521;53.584;9.938;2024-02-14T09:21:33;7.70;99.90
3023;DHT22;1521;53.584;9.938;2024-02-14T09:23:59;7.80;99.90
3023;DHT22;1521;53.584;9.938;2024-02-14T09:26:25;7.90;99.90
3023;DHT22;1521;53.584;9.938;2024-02-14T09:28:52;8.00;99.90
3023;DHT22;1521;53.584;9.938;2024-02-14T09:31:18;8.00;99.90
3023;DHT22;1521;53.584;9.938;2024-02-14T09:33:46;8.10;99.90
3023;DHT22;1521;53.584;9.938;2024-02-14T09:36:13;8.20;99.90
3023;DHT22;1521;53.584;9.938;2024-02-14T09:38:39;8.20;99.90
3023;DHT22;1521;53.584;9.938;2024-02-14T09:41:41;8.20;99.90
3023;DHT22;1521;53.584;9.938;2024-02-14T09:44:00;8.30;99.90
3023;DHT22;1521;53.584;9.938;2024-02-14T09:46:25;8.40;99.90
3023;DHT22;1521;53.584;9.938;2024-02-14T09:48:52;8.40;99.90
3023;DHT22;1521;53.584;9.938;2024-02-14T09:51:19;8.40;99.90
3023;DHT22;1521;53.584;9.938;2024-02-14T09:53:44;8.50;99.90
3023;DHT22;1521;53.584;9.938;2024-02-14T09:56:11;8.60;99.90
3023;DHT22;1521;53.584;9.938;2024-02-14T09:58:40;8.60;99.90
3023;DHT22;1521;53.584;9.938;2024-02-14T10:01:06;8.60;99.90
3023;DHT22;1521;53.584;9.938;2024-02-14T10:03:32;8.70;99.90
3023;DHT22;1521;53.584;9.938;2024-02-14T10:05:58;8.70;99.90
3023;DHT22;1521;53.584;9.938;2024-02-14T10:08:23;8.80;99.90
3023;DHT22;1521;53.584;9.938;2024-02-14T10:10:50;8.80;99.90
3023;DHT22;1521;53.584;9.938;2024-02-14T10:13:15;8.80;99.90
3023;DHT22;1521;53.584;9.938;2024-02-14T10:15:41;8.80;99.90
3023;DHT22;1521;53.584;9.938;2024-02-14T10:18:07;8.90;99.90
3023;DHT22;1521;53.584;9.938;2024-02-14T10:20:35;8.90;99.90
3023;DHT22;1521;53.584;9.938;2024-02-14T10:23:07;8.90;99.90
3023;DHT22;1521;53.584;9.938;2024-02-14T10:25:34;9.00;99.90
3023;DHT22;1521;53.584;9.938;2024-02-14T10:28:06;9.00;99.90
3023;DHT22;1521;53.584;9.938;2024-02-14T10:30:39;9.00;99.90
3023;DHT22;1521;53.584;9.938;2024-02-14T10:33:06;9.10;99.90
3023;DHT22;1521;53.584;9.938;2024-02-14T10:35:34;9.20;99.90
3023;DHT22;1521;53.584;9.938;2024-02-14T10:38:02;9.20;99.90
3023;DHT22;1521;53.584;9.938;2024-02-14T10:40:28;9.20;99.90
3023;DHT22;1521;53.584;9.938;2024-02-14T10:42:55;9.20;99.90
3023;DHT22;1521;53.584;9.938;2024-02-14T10:45:23;9.30;99.90
3023;DHT22;1521;53.584;9.938;2024-02-14T10:47:50;9.40;99.90
3023;DHT22;1521;53.584;9.938;2024-02-14T10:50:17;9.40;99.90
3023;DHT22;1521;53.584;9.938;2024-02-14T10:52:44;9.50;99.90
3023;DHT22;1521;53.584;9.938;2024-02-14T10:55:12;9.50;99.90
3023;DHT22;1521;53.584;9.938;2024-02-14T10:57:38;9.60;99.90
3023;DHT22;1521;53.584;9.938;2024-02-14T11:00:09;9.60;99.90
3023;DHT22;1521;53.584;9.938;2024-02-14T11:02:36;9.70;99.90
3023;DHT22;1521;53.584;9.938;2024-02-14T11:05:03;9.70;99.90
3023;DHT22;1521;53.584;9.938;2024-02-14T11:07:29;9.70;99.90
3023;DHT22;1521;53.584;9.938;2024-02-14T11:10:05;9.70;99.90
3023;DHT22;1521;53.584;9.938;2024-02-14T11:12:37;9.80;99.90
3023;DHT22;1521;53.584;9.938;2024-02-14T11:15:24;9.80;99.90
3023;DHT22;1521;53.584;9.938;2024-02-14T11:18:04;9.80;99.90
3023;DHT22;1521;53.584;9.938;2024-02-14T11:20:37;9.90;99.90
3023;DHT22;1521;53.584;9.938;2024-02-14T11:23:04;9.90;99.90
3023;DHT22;1521;53.584;9.938;2024-02-14T11:25:32;10.00;99.90
3023;DHT22;1521;53.584;9.938;2024-02-14T11:27:59;10.00;99.90
3023;DHT22;1521;53.584;9.938;2024-02-14T11:30:34;10.10;99.90
3023;DHT22;1521;53.584;9.938;2024-02-14T11:33:20;10.10;99.90
3023;DHT22;1521;53.584;9.938;2024-02-14T11:35:47;10.20;99.90
3023;DHT22;1521;53.584;9.938;2024-02-14T11:38:14;10.20;99.90
3023;DHT22;1521;53.584;9.938;2024-02-14T11:40:40;10.20;99.90
3023;DHT22;1521;53.584;9.938;2024-02-14T11:43:17;10.30;99.90
3023;DHT22;1521;53.584;9.938;2024-02-14T11:45:44;10.30;99.90
3023;DHT22;1521;53.584;9.938;2024-02-14T11:48:14;10.40;99.90
3023;DHT22;1521;53.584;9.938;2024-02-14T11:50:44;10.40;99.90
3023;DHT22;1521;53.584;9.938;2024-02-14T11:53:14;10.50;99.90
3023;DHT22;1521;53.584;9.938;2024-02-14T11:55:42;10.60;99.90
3023;DHT22;1521;53.584;9.938;2024-02-14T11:58:12;10.60;99.90
3023;DHT22;1521;53.584;9.938;2024-02-14T12:00:39;10.60;99.90
3023;DHT22;1521;53.584;9.938;2024-02-14T12:03:07;10.60;99.90
3023;DHT22;1521;53.584;9.938;2024-02-14T12:05:34;10.60;99.90
3023;DHT22;1521;53.584;9.938;2024-02-14T12:08:00;10.60;99.90
3023;DHT22;1521;53.584;9.938;2024-02-14T12:10:26;10.50;99.90
3023;DHT22;1521;53.584;9.938;2024-02-14T12:12:52;10.50;99.90
3023;DHT22;1521;53.584;9.938;2024-02-14T12:15:17;10.60;99.90
3023;DHT22;1521;53.584;9.938;2024-02-14T12:17:45;10.60;99.90
3023;DHT22;1521;53.584;9.938;2024-02-14T12:20:12;10.70;99.90
3023;DHT22;1521;53.584;9.938;2024-02-14T12:22:39;10.80;99.90
3023;DHT22;1521;53.584;9.938;2024-02-14T12:25:07;10.90;99.90
3023;DHT22;1521;53.584;9.938;2024-02-14T12:27:34;10.80;99.90
3023;DHT22;1521;53.584;9.938;2024-02-14T12:30:03;10.90;99.90
3023;DHT22;1521;53.584;9.938;2024-02-14T12:32:29;10.90;99.90
3023;DHT22;1521;53.584;9.938;2024-02-14T12:34:59;10.90;99.90
3023;DHT22;1521;53.584;9.938;2024-02-14T12:37:25;10.90;99.90
3023;DHT22;1521;53.584;9.938;2024-02-14T12:39:50;10.90;99.90
3023;DHT22;1521;53.584;9.938;2024-02-14T12:42:16;11.10;99.90
3023;DHT22;1521;53.584;9.938;2024-02-14T12:44:44;11.00;99.90
3023;DHT22;1521;53.584;9.938;2024-02-14T12:47:09;11.00;99.90
3023;DHT22;1521;53.584;9.938;2024-02-14T12:49:35;11.00;99.90
3023;DHT22;1521;53.584;9.938;2024-02-14T12:52:01;11.00;99.90
3023;DHT22;1521;53.584;9.938;2024-02-14T12:54:27;11.00;99.90
3023;DHT22;1521;53.584;9.938;2024-02-14T12:56:53;11.00;99.90
3023;DHT22;1521;53.584;9.938;2024-02-14T12:59:18;11.00;99.90
3023;DHT22;1521;53.584;9.938;2024-02-14T13:01:44;11.00;99.90
3023;DHT22;1521;53.584;9.938;2024-02-14T13:04:10;11.00;99.90
3023;DHT22;1521;53.584;9.938;2024-02-14T13:06:36;11.00;99.90
3023;DHT22;1521;53.584;9.938;2024-02-14T13:09:03;11.00;99.90
3023;DHT22;1521;53.584;9.938;2024-02-14T13:11:31;10.90;99.90
3023;DHT22;1521;53.584;9.938;2024-02-14T13:13:57;11.00;99.90
3023;DHT22;1521;53.584;9.938;2024-02-14T13:16:23;11.00;99.90
3023;DHT22;1521;53.584;9.938;2024-02-14T13:18:49;11.00;99.90
3023;DHT22;1521;53.584;9.938;2024-02-14T13:21:14;11.00;99.90
3023;DHT22;1521;53.584;9.938;2024-02-14T13:23:41;11.00;99.90
3023;DHT22;1521;53.584;9.938;2024-02-14T13:26:08;11.00;99.90
3023;DHT22;1521;53.584;9.938;2024-02-14T13:28:33;11.00;99.90
3023;DHT22;1521;53.584;9.938;2024-02-14T13:31:00;11.00;99.90
3023;DHT22;1521;53.584;9.938;2024-02-14T13:33:26;11.00;99.90
3023;DHT22;1521;53.584;9.938;2024-02-14T13:35:51;11.10;99.90
3023;DHT22;1521;53.584;9.938;2024-02-14T13:38:17;11.10;99.90
3023;DHT22;1521;53.584;9.938;2024-02-14T13:40:43;11.10;99.90
3023;DHT22;1521;53.584;9.938;2024-02-14T13:43:09;11.10;99.90
3023;DHT22;1521;53.584;9.938;2024-02-14T13:45:43;11.10;99.90
3023;DHT22;1521;53.584;9.938;2024-02-14T13:48:09;11.10;99.90
3023;DHT22;1521;53.584;9.938;2024-02-14T13:50:36;11.10;99.90
3023;DHT22;1521;53.584;9.938;2024-02-14T13:53:02;11.10;99.90
3023;DHT22;1521;53.584;9.938;2024-02-14T13:55:28;11.10;99.90
3023;DHT22;1521;53.584;9.938;2024-02-14T13:57:54;11.10;99.90
3023;DHT22;1521;53.584;9.938;2024-02-14T14:00:19;11.10;99.90
3023;DHT22;1521;53.584;9.938;2024-02-14T14:02:45;11.10;99.90
3023;DHT22;1521;53.584;9.938;2024-02-14T14:05:11;11.10;99.90
3023;DHT22;1521;53.584;9.938;2024-02-14T14:07:38;11.10;99.90
3023;DHT22;1521;53.584;9.938;2024-02-14T14:10:05;11.10;99.90
3023;DHT22;1521;53.584;9.938;2024-02-14T14:12:31;11.00;99.90
3023;DHT22;1521;53.584;9.938;2024-02-14T14:14:57;11.00;99.90
3023;DHT22;1521;53.584;9.938;2024-02-14T14:17:23;11.10;99.90
3023;DHT22;1521;53.584;9.938;2024-02-14T14:19:49;11.10;99.90
3023;DHT22;1521;53.584;9.938;2024-02-14T14:22:14;11.10;99.90
3023;DHT22;1521;53.584;9.938;2024-02-14T14:24:41;11.10;99.90
3023;DHT22;1521;53.584;9.938;2024-02-14T14:27:07;11.10;99.90
3023;DHT22;1521;53.584;9.938;2024-02-14T14:29:39;11.10;99.90
3023;DHT22;1521;53.584;9.938;2024-02-14T14:32:07;11.00;99.90
3023;DHT22;1521;53.584;9.938;2024-02-14T14:34:33;11.00;99.90
3023;DHT22;1521;53.584;9.938;2024-02-14T14:36:58;11.00;99.90
3023;DHT22;1521;53.584;9.938;2024-02-14T14:39:24;11.00;99.90
3023;DHT22;1521;53.584;9.938;2024-02-14T14:41:49;11.10;99.90
3023;DHT22;1521;53.584;9.938;2024-02-14T14:44:16;11.00;99.90
3023;DHT22;1521;53.584;9.938;2024-02-14T14:46:42;11.00;99.90
3023;DHT22;1521;53.584;9.938;2024-02-14T14:49:10;11.00;99.90
3023;DHT22;1521;53.584;9.938;2024-02-14T14:51:36;11.00;99.90
3023;DHT22;1521;53.584;9.938;2024-02-14T14:54:06;11.00;99.90
3023;DHT22;1521;53.584;9.938;2024-02-14T14:56:32;11.00;99.90
3023;DHT22;1521;53.584;9.938;2024-02-14T14:58:57;11.00;99.90
3023;DHT22;1521;53.584;9.938;2024-02-14T15:01:25;11.00;99.90
3023;DHT22;1521;53.584;9.938;2024-02-14T15:03:53;10.90;99.90
3023;DHT22;1521;53.584;9.938;2024-02-14T15:06:18;10.90;99.90
3023;DHT22;1521;53.584;9.938;2024-02-14T15:08:44;11.00;99.90
3023;DHT22;1521;53.584;9.938;2024-02-14T15:11:11;10.90;99.90
3023;DHT22;1521;53.584;9.938;2024-02-14T15:13:40;10.90;99.90
3023;DHT22;1521;53.584;9.938;2024-02-14T15:16:06;10.90;99.90
3023;DHT22;1521;53.584;9.938;2024-02-14T15:18:33;10.90;99.90
3023;DHT22;1521;53.584;9.938;2024-02-14T15:20:59;10.90;99.90
3023;DHT22;1521;53.584;9.938;2024-02-14T15:23:25;10.90;99.90
3023;DHT22;1521;53.584;9.938;2024-02-14T15:25:51;10.90;99.90
3023;DHT22;1521;53.584;9.938;2024-02-14T15:28:16;10.90;99.90
3023;DHT22;1521;53.584;9.938;2024-02-14T15:30:51;10.90;99.90
3023;DHT22;1521;53.584;9.938;2024-02-14T15:33:35;10.90;99.90
3023;DHT22;1521;53.584;9.938;2024-02-14T15:36:01;10.90;99.90
3023;DHT22;1521;53.584;9.938;2024-02-14T15:38:27;10.90;99.90
3023;DHT22;1521;53.584;9.938;2024-02-14T15:40:53;10.90;99.90
3023;DHT22;1521;53.584;9.938;2024-02-14T15:43:22;10.90;99.90
3023;DHT22;1521;53.584;9.938;2024-02-14T15:45:48;10.90;99.90
3023;DHT22;1521;53.584;9.938;2024-02-14T15:48:14;10.90;99.90
3023;DHT22;1521;53.584;9.938;2024-02-14T15:50:44;10.90;99.90
3023;DHT22;1521;53.584;9.938;2024-02-14T15:53:11;10.90;99.90
3023;DHT22;1521;53.584;9.938;2024-02-14T15:55:37;10.90;99.90
3023;DHT22;1521;53.584;9.938;2024-02-14T15:58:03;10.90;99.90
3023;DHT22;1521;53.584;9.938;2024-02-14T16:00:28;10.90;99.90
3023;DHT22;1521;53.584;9.938;2024-02-14T16:02:58;10.90;99.90
3023;DHT22;1521;53.584;9.938;2024-02-14T16:05:24;10.90;99.90
3023;DHT22;1521;53.584;9.938;2024-02-14T16:07:50;11.00;99.90
3023;DHT22;1521;53.584;9.938;2024-02-14T16:10:15;10.90;99.90